createdAt,value
2018-08-25T00:00:26.480Z,14.00
2018-08-25T00:02:53.803Z,14.00
2018-08-25T00:05:21.074Z,14.04
2018-08-25T00:07:48.421Z,14.06
2018-08-25T00:10:15.718Z,14.03
2018-08-25T00:12:42.984Z,13.96
2018-08-25T00:15:10.332Z,13.98
2018-08-25T00:17:37.544Z,13.92
2018-08-25T00:20:04.892Z,13.82
2018-08-25T00:22:32.215Z,13.80
2018-08-25T00:24:59.517Z,13.83
2018-08-25T00:27:26.804Z,13.88
2018-08-25T00:29:54.071Z,13.88
2018-08-25T00:32:21.410Z,13.86
2018-08-25T00:34:48.676Z,13.86
2018-08-25T00:37:15.964Z,13.87
2018-08-25T00:39:43.307Z,13.83
2018-08-25T00:42:10.579Z,13.76
2018-08-25T00:44:37.929Z,13.71
2018-08-25T00:47:05.387Z,13.74
2018-08-25T00:49:32.658Z,13.74
2018-08-25T00:51:59.902Z,13.68
2018-08-25T00:54:27.206Z,13.56
2018-08-25T00:56:54.551Z,13.53
2018-08-25T00:59:21.851Z,13.51
2018-08-25T01:01:49.130Z,13.55
2018-08-25T01:04:16.446Z,13.56
2018-08-25T01:06:43.661Z,13.61
2018-08-25T01:09:10.925Z,13.67
2018-08-25T01:11:38.333Z,13.71
2018-08-25T01:14:05.667Z,13.73
2018-08-25T01:16:32.999Z,13.65
2018-08-25T01:19:00.226Z,13.61
2018-08-25T01:21:27.486Z,13.60
2018-08-25T01:23:54.770Z,13.43
2018-08-25T01:26:22.112Z,13.31
2018-08-25T01:28:49.335Z,13.35
2018-08-25T01:31:16.656Z,13.36
2018-08-25T01:33:43.889Z,13.35
2018-08-25T01:36:11.215Z,13.26
2018-08-25T01:38:38.486Z,13.27
2018-08-25T01:41:05.768Z,13.30
2018-08-25T01:43:33.068Z,13.33
2018-08-25T01:46:00.330Z,13.41
2018-08-25T01:48:27.642Z,13.43
2018-08-25T01:50:54.860Z,13.45
2018-08-25T01:53:22.133Z,13.49
2018-08-25T01:55:49.444Z,13.46
2018-08-25T01:58:16.704Z,13.51
2018-08-25T02:00:45.085Z,13.49
2018-08-25T02:03:12.364Z,13.40
2018-08-25T02:05:39.619Z,13.34
2018-08-25T02:08:06.927Z,13.33
2018-08-25T02:10:34.280Z,13.33
2018-08-25T02:13:01.620Z,13.32
2018-08-25T02:15:28.938Z,13.37
2018-08-25T02:17:56.207Z,13.40
2018-08-25T02:20:23.827Z,13.44
2018-08-25T02:22:51.264Z,13.47
2018-08-25T02:25:18.520Z,13.42
2018-08-25T02:27:45.856Z,13.44
2018-08-25T02:30:13.132Z,13.48
2018-08-25T02:32:40.438Z,13.44
2018-08-25T02:35:07.825Z,13.34
2018-08-25T02:37:35.182Z,13.36
2018-08-25T02:40:02.510Z,13.35
2018-08-25T02:42:29.856Z,13.42
2018-08-25T02:44:57.166Z,13.38
2018-08-25T02:47:24.473Z,13.43
2018-08-25T02:49:51.728Z,13.51
2018-08-25T02:52:19.124Z,13.52
2018-08-25T02:54:46.401Z,13.38
2018-08-25T02:57:13.724Z,13.24
2018-08-25T02:59:40.984Z,13.25
2018-08-25T03:02:08.414Z,13.21
2018-08-25T03:04:35.666Z,13.21
2018-08-25T03:07:02.914Z,13.18
2018-08-25T03:09:30.282Z,13.18
2018-08-25T03:11:57.687Z,13.17
2018-08-25T03:14:24.968Z,13.20
2018-08-25T03:16:52.240Z,13.23
2018-08-25T03:19:19.723Z,13.24
2018-08-25T03:21:47.084Z,13.21
2018-08-25T03:24:14.449Z,13.11
2018-08-25T03:26:41.868Z,13.09
2018-08-25T03:29:09.205Z,13.17
2018-08-25T03:31:36.595Z,13.19
2018-08-25T03:34:03.909Z,13.15
2018-08-25T03:36:31.228Z,13.09
2018-08-25T03:38:58.538Z,13.10
2018-08-25T03:41:25.838Z,13.01
2018-08-25T03:43:53.190Z,13.02
2018-08-25T03:46:20.538Z,13.01
2018-08-25T03:48:47.855Z,13.09
2018-08-25T03:51:15.111Z,13.13
2018-08-25T03:53:42.426Z,13.18
2018-08-25T03:56:09.718Z,13.20
2018-08-25T03:58:37.076Z,13.22
2018-08-25T04:01:04.404Z,13.33
2018-08-25T04:03:31.653Z,13.37
2018-08-25T04:06:00.755Z,13.50
2018-08-25T04:08:28.245Z,13.61
2018-08-25T04:10:55.509Z,13.59
2018-08-25T04:13:22.919Z,13.52
2018-08-25T04:15:50.243Z,13.54
2018-08-25T04:18:17.595Z,13.52
2018-08-25T04:20:44.850Z,13.53
2018-08-25T04:23:12.185Z,13.41
2018-08-25T04:25:39.472Z,13.37
2018-08-25T04:28:06.705Z,13.28
2018-08-25T04:30:33.977Z,13.24
2018-08-25T04:33:01.251Z,13.21
2018-08-25T04:35:28.617Z,13.15
2018-08-25T04:37:55.864Z,13.09
2018-08-25T04:40:23.148Z,13.00
2018-08-25T04:42:50.423Z,12.95
2018-08-25T04:45:17.725Z,12.91
2018-08-25T04:47:44.954Z,12.90
2018-08-25T04:50:12.289Z,12.91
2018-08-25T04:52:39.625Z,12.92
2018-08-25T04:55:06.880Z,12.92
2018-08-25T04:57:34.241Z,12.94
2018-08-25T05:00:01.492Z,12.95
2018-08-25T05:02:28.748Z,12.99
2018-08-25T05:04:57.792Z,13.03
2018-08-25T05:07:25.061Z,13.07
2018-08-25T05:09:52.388Z,13.13
2018-08-25T05:12:19.573Z,13.09
2018-08-25T05:14:46.877Z,13.11
2018-08-25T05:17:14.185Z,13.15
2018-08-25T05:19:41.428Z,13.23
2018-08-25T05:22:08.694Z,13.25
2018-08-25T05:24:35.975Z,13.26
2018-08-25T05:27:03.225Z,13.23
2018-08-25T05:29:30.553Z,13.27
2018-08-25T05:31:57.879Z,13.26
2018-08-25T05:34:25.160Z,13.26
2018-08-25T05:36:52.506Z,13.25
2018-08-25T05:39:19.792Z,13.28
2018-08-25T05:41:47.032Z,13.28
2018-08-25T05:44:14.499Z,13.35
2018-08-25T05:46:41.659Z,13.37
2018-08-25T05:49:08.973Z,13.44
2018-08-25T05:51:36.263Z,13.51
2018-08-25T05:54:03.575Z,13.55
2018-08-25T05:56:30.837Z,13.61
2018-08-25T05:58:58.181Z,13.61
2018-08-25T06:01:25.489Z,13.72
2018-08-25T06:03:53.023Z,13.76
2018-08-25T06:06:20.262Z,13.81
2018-08-25T06:08:47.624Z,13.87
2018-08-25T06:11:14.948Z,13.92
2018-08-25T06:13:42.361Z,13.87
2018-08-25T06:16:09.681Z,13.88
2018-08-25T06:18:37.021Z,13.87
2018-08-25T06:21:04.319Z,13.92
2018-08-25T06:23:31.529Z,13.91
2018-08-25T06:25:58.996Z,13.94
2018-08-25T06:28:26.225Z,14.00
2018-08-25T06:30:53.511Z,14.00
2018-08-25T06:33:20.761Z,14.06
2018-08-25T06:35:48.061Z,14.03
2018-08-25T06:38:15.307Z,14.09
2018-08-25T06:40:42.574Z,14.11
2018-08-25T06:43:09.844Z,14.16
2018-08-25T06:45:37.111Z,14.16
2018-08-25T06:48:04.411Z,14.12
2018-08-25T06:50:33.511Z,14.14
2018-08-25T06:53:00.759Z,14.21
2018-08-25T06:55:28.067Z,14.25
2018-08-25T06:57:55.365Z,14.27
2018-08-25T07:00:22.741Z,14.30
2018-08-25T07:02:50.004Z,14.36
2018-08-25T07:05:17.628Z,14.38
2018-08-25T07:07:44.911Z,14.35
2018-08-25T07:10:12.149Z,14.40
2018-08-25T07:12:39.372Z,14.44
2018-08-25T07:15:06.720Z,14.43
2018-08-25T07:17:33.919Z,14.41
2018-08-25T07:20:01.150Z,14.47
2018-08-25T07:22:28.412Z,14.54
2018-08-25T07:24:55.696Z,14.53
2018-08-25T07:27:22.896Z,14.56
2018-08-25T07:29:50.248Z,14.59
2018-08-25T07:32:17.554Z,14.60
2018-08-25T07:34:44.691Z,14.63
2018-08-25T07:37:11.945Z,14.67
2018-08-25T07:39:39.225Z,14.79
2018-08-25T07:42:06.479Z,14.84
2018-08-25T07:44:33.773Z,14.89
2018-08-25T07:47:01.055Z,14.90
2018-08-25T07:49:28.329Z,14.99
2018-08-25T07:51:55.632Z,14.90
2018-08-25T07:54:22.889Z,15.06
2018-08-25T07:56:50.285Z,15.08
2018-08-25T07:59:17.607Z,15.13
2018-08-25T08:01:44.849Z,15.14
2018-08-25T08:04:12.106Z,15.07
2018-08-25T08:06:39.382Z,15.00
2018-08-25T08:09:07.821Z,14.91
2018-08-25T08:11:35.204Z,14.96
2018-08-25T08:14:02.468Z,14.96
2018-08-25T08:16:29.784Z,15.03
2018-08-25T08:18:57.042Z,15.12
2018-08-25T08:21:24.216Z,15.21
2018-08-25T08:23:51.526Z,15.25
2018-08-25T08:26:18.755Z,15.21
2018-08-25T08:28:46.002Z,15.20
2018-08-25T08:31:13.255Z,15.10
2018-08-25T08:33:40.632Z,15.18
2018-08-25T08:36:07.940Z,15.17
2018-08-25T08:38:38.940Z,15.22
2018-08-25T08:41:06.273Z,15.22
2018-08-25T08:43:33.602Z,15.17
2018-08-25T08:46:00.962Z,15.29
2018-08-25T08:48:28.222Z,15.29
2018-08-25T08:50:55.615Z,15.08
2018-08-25T08:53:22.867Z,15.04
2018-08-25T08:55:50.140Z,14.89
2018-08-25T08:58:17.496Z,14.96
2018-08-25T09:00:44.796Z,14.94
2018-08-25T09:03:12.058Z,14.99
2018-08-25T09:05:42.212Z,15.07
2018-08-25T09:08:09.648Z,15.01
2018-08-25T09:10:36.873Z,14.97
2018-08-25T09:14:28.670Z,14.80
2018-08-25T09:16:56.736Z,14.54
2018-08-25T09:19:24.039Z,14.44
2018-08-25T09:21:51.343Z,14.37
2018-08-25T09:24:18.643Z,14.42
2018-08-25T09:26:45.986Z,14.50
2018-08-25T09:29:13.283Z,14.65
2018-08-25T09:31:41.041Z,14.74
2018-08-25T09:34:08.251Z,14.74
2018-08-25T09:36:35.728Z,14.80
2018-08-25T09:39:04.379Z,14.81
2018-08-25T09:41:31.720Z,14.77
2018-08-25T09:43:59.038Z,14.59
2018-08-25T09:46:26.380Z,14.43
2018-08-25T09:48:53.670Z,14.47
2018-08-25T09:51:20.953Z,14.45
2018-08-25T09:53:48.163Z,14.46
2018-08-25T09:56:15.459Z,14.47
2018-08-25T09:58:42.735Z,14.59
2018-08-25T10:01:15.568Z,14.61
2018-08-25T10:03:43.040Z,14.60
2018-08-25T10:06:10.438Z,14.60
2018-08-25T10:08:37.712Z,14.57
2018-08-25T10:11:05.030Z,14.50
2018-08-25T10:13:32.355Z,14.46
2018-08-25T10:15:59.688Z,14.44
2018-08-25T10:18:26.969Z,14.48
2018-08-25T10:20:56.311Z,14.45
2018-08-25T10:23:23.584Z,14.33
2018-08-25T10:25:50.825Z,14.41
2018-08-25T10:28:18.187Z,14.41
2018-08-25T10:30:45.500Z,14.33
2018-08-25T10:33:12.867Z,14.37
2018-08-25T10:35:40.246Z,14.38
2018-08-25T10:38:10.294Z,14.42
2018-08-25T10:40:37.807Z,14.53
2018-08-25T10:43:05.156Z,14.61
2018-08-25T10:45:32.484Z,14.64
2018-08-25T10:47:59.795Z,14.66
2018-08-25T10:50:27.143Z,14.63
2018-08-25T10:52:54.376Z,14.59
2018-08-25T10:55:21.740Z,14.61
2018-08-25T10:57:49.098Z,14.57
2018-08-25T11:00:16.425Z,14.50
2018-08-25T11:02:43.639Z,14.33
2018-08-25T11:05:10.886Z,14.43
2018-08-25T11:07:38.143Z,14.60
2018-08-25T11:10:05.528Z,14.74
2018-08-25T11:12:32.825Z,14.89
2018-08-25T11:15:00.167Z,14.95
2018-08-25T11:17:27.435Z,14.92
2018-08-25T11:19:54.701Z,14.87
2018-08-25T11:22:21.983Z,14.77
2018-08-25T11:24:49.220Z,14.59
2018-08-25T11:27:16.477Z,14.57
2018-08-25T11:29:43.769Z,14.71
2018-08-25T11:32:11.038Z,14.76
2018-08-25T11:34:38.343Z,14.74
2018-08-25T11:37:05.998Z,14.62
2018-08-25T11:39:37.205Z,14.61
2018-08-25T11:42:04.875Z,14.57
2018-08-25T11:44:32.125Z,14.60
2018-08-25T11:46:59.387Z,14.63
2018-08-25T11:49:26.670Z,14.76
2018-08-25T11:51:53.935Z,14.94
2018-08-25T11:54:21.174Z,14.92
2018-08-25T11:56:51.430Z,14.81
2018-08-25T11:59:18.680Z,14.71
2018-08-25T12:01:56.633Z,14.59
2018-08-25T12:04:24.109Z,14.51
2018-08-25T12:06:51.782Z,14.56
2018-08-25T12:09:19.034Z,14.52
2018-08-25T12:11:53.136Z,14.50
2018-08-25T12:14:20.805Z,14.71
2018-08-25T12:16:48.079Z,14.77
2018-08-25T12:19:15.391Z,14.84
2018-08-25T12:21:42.722Z,14.80
2018-08-25T12:24:10.022Z,14.84
2018-08-25T12:26:37.329Z,14.86
2018-08-25T12:29:04.763Z,14.81
2018-08-25T12:31:32.062Z,14.91
2018-08-25T12:33:59.303Z,14.95
2018-08-25T12:36:27.193Z,15.04
2018-08-25T12:38:54.542Z,15.08
2018-08-25T12:41:21.888Z,15.09
2018-08-25T12:43:49.134Z,15.06
2018-08-25T12:46:16.655Z,15.01
2018-08-25T12:48:43.963Z,14.97
2018-08-25T12:51:11.214Z,14.96
2018-08-25T12:53:38.548Z,14.87
2018-08-25T12:56:05.836Z,14.88
2018-08-25T12:58:33.263Z,14.94
2018-08-25T13:01:00.566Z,14.90
2018-08-25T13:03:27.942Z,14.99
2018-08-25T13:05:56.197Z,15.08
2018-08-25T13:08:25.475Z,15.06
2018-08-25T13:10:55.458Z,15.07
2018-08-25T13:13:22.705Z,15.02
2018-08-25T13:15:50.039Z,14.93
2018-08-25T13:18:17.317Z,14.87
2018-08-25T13:20:44.570Z,15.01
2018-08-25T13:23:11.841Z,15.00
2018-08-25T13:25:39.174Z,14.99
2018-08-25T13:28:06.421Z,15.01
2018-08-25T13:30:33.819Z,15.05
2018-08-25T13:33:01.056Z,14.99
2018-08-25T13:35:28.403Z,14.95
2018-08-25T13:37:55.677Z,14.99
2018-08-25T13:40:22.954Z,14.93
2018-08-25T13:42:50.238Z,14.93
2018-08-25T13:45:17.529Z,14.77
2018-08-25T13:47:44.798Z,14.64
2018-08-25T13:50:12.091Z,14.24
2018-08-25T13:52:39.484Z,14.20
2018-08-25T13:55:06.740Z,14.25
2018-08-25T13:57:34.041Z,14.29
2018-08-25T14:00:01.355Z,14.28
2018-08-25T14:02:28.645Z,14.33
2018-08-25T14:04:55.908Z,14.39
2018-08-25T14:07:23.264Z,14.51
2018-08-25T14:09:50.490Z,14.68
2018-08-25T14:12:17.701Z,14.80
2018-08-25T14:14:44.942Z,15.24
2018-08-25T14:17:12.300Z,15.63
2018-08-25T14:19:39.510Z,16.22
2018-08-25T14:22:06.861Z,16.39
2018-08-25T14:24:34.076Z,16.29
2018-08-25T14:27:01.444Z,16.27
2018-08-25T14:29:28.834Z,16.52
2018-08-25T14:31:56.214Z,16.53
2018-08-25T14:34:23.441Z,16.80
2018-08-25T14:36:50.826Z,16.98
2018-08-25T14:39:18.155Z,16.64
2018-08-25T14:41:45.477Z,16.24
2018-08-25T14:44:12.692Z,16.12
2018-08-25T14:46:39.939Z,15.89
2018-08-25T14:49:07.340Z,15.81
2018-08-25T14:51:34.650Z,15.99
2018-08-25T14:54:01.961Z,16.16
2018-08-25T14:56:29.247Z,16.26
2018-08-25T14:58:56.748Z,16.40
2018-08-25T15:01:24.135Z,16.31
2018-08-25T15:03:51.513Z,16.36
2018-08-25T15:06:18.821Z,16.34
2018-08-25T15:08:46.085Z,16.19
2018-08-25T15:11:13.668Z,16.24
2018-08-25T15:13:40.984Z,16.23
2018-08-25T15:16:08.267Z,16.12
2018-08-25T15:18:35.510Z,16.06
2018-08-25T15:21:02.872Z,15.99
2018-08-25T15:23:30.092Z,16.01
2018-08-25T15:25:57.382Z,15.84
2018-08-25T15:28:24.668Z,15.71
2018-08-25T15:30:52.015Z,15.59
2018-08-25T15:33:19.307Z,15.60
2018-08-25T15:35:46.687Z,15.65
2018-08-25T15:38:14.012Z,15.85
2018-08-25T15:40:41.239Z,15.86
2018-08-25T15:43:08.505Z,15.90
2018-08-25T15:45:35.782Z,16.03
2018-08-25T15:48:03.039Z,16.12
2018-08-25T15:50:30.430Z,16.16
2018-08-25T15:52:57.678Z,16.14
2018-08-25T15:55:24.936Z,16.05
2018-08-25T15:57:52.365Z,15.96
2018-08-25T16:00:19.541Z,16.01
2018-08-25T16:02:46.881Z,15.95
2018-08-25T16:05:14.223Z,15.87
2018-08-25T16:07:41.534Z,15.84
2018-08-25T16:10:08.889Z,15.90
2018-08-25T16:12:36.445Z,15.78
2018-08-25T16:15:03.671Z,15.80
2018-08-25T16:17:31.152Z,15.83
2018-08-25T16:19:58.594Z,16.01
2018-08-25T16:22:25.652Z,16.26
2018-08-25T16:24:52.901Z,16.32
2018-08-25T16:27:20.163Z,16.29
2018-08-25T16:29:47.431Z,16.25
2018-08-25T16:32:14.718Z,16.39
2018-08-25T16:34:42.234Z,16.60
2018-08-25T16:37:09.605Z,16.77
2018-08-25T16:39:36.840Z,17.06
2018-08-25T16:42:04.084Z,17.34
2018-08-25T16:44:31.365Z,17.26
2018-08-25T16:46:58.679Z,17.21
2018-08-25T16:49:25.970Z,17.38
2018-08-25T16:51:53.227Z,17.27
2018-08-25T16:54:20.500Z,17.10
2018-08-25T16:56:47.791Z,17.03
2018-08-25T16:59:15.114Z,16.95
2018-08-25T17:01:42.370Z,17.02
2018-08-25T17:04:09.786Z,17.15
2018-08-25T17:06:37.030Z,17.18
2018-08-25T17:09:06.412Z,16.81
2018-08-25T17:11:33.741Z,16.47
2018-08-25T17:14:00.971Z,16.32
2018-08-25T17:16:28.333Z,16.17
2018-08-25T17:18:55.660Z,16.06
2018-08-25T17:21:23.018Z,15.97
2018-08-25T17:23:50.322Z,15.85
2018-08-25T17:26:17.688Z,15.82
2018-08-25T17:28:44.931Z,15.72
2018-08-25T17:31:12.315Z,15.62
2018-08-25T17:33:39.590Z,15.62
2018-08-25T17:36:06.846Z,15.46
2018-08-25T17:38:34.125Z,15.37
2018-08-25T17:41:01.391Z,15.29
2018-08-25T17:43:28.813Z,15.21
2018-08-25T17:45:56.308Z,15.11
2018-08-25T17:48:23.504Z,15.00
2018-08-25T17:50:50.757Z,14.99
2018-08-25T17:53:18.006Z,14.96
2018-08-25T17:55:45.312Z,14.88
2018-08-25T17:58:12.597Z,14.85
2018-08-25T18:00:40.037Z,14.79
2018-08-25T18:03:07.309Z,14.73
2018-08-25T18:05:34.527Z,14.67
2018-08-25T18:08:01.757Z,14.64
2018-08-25T18:10:29.054Z,14.60
2018-08-25T18:12:56.486Z,14.51
2018-08-25T18:15:23.841Z,14.44
2018-08-25T18:17:51.125Z,14.39
2018-08-25T18:20:18.402Z,14.41
2018-08-25T18:22:45.692Z,14.36
2018-08-25T18:25:12.975Z,14.28
2018-08-25T18:27:40.239Z,14.27
2018-08-25T18:30:07.605Z,14.20
2018-08-25T18:32:34.768Z,14.20
2018-08-25T18:35:02.075Z,14.21
2018-08-25T18:37:29.342Z,14.12
2018-08-25T18:39:56.614Z,14.10
2018-08-25T18:42:23.889Z,14.07
2018-08-25T18:44:51.175Z,14.10
2018-08-25T18:47:18.409Z,14.02
2018-08-25T18:49:45.729Z,13.99
2018-08-25T18:52:13.066Z,13.90
2018-08-25T18:54:40.399Z,13.87
2018-08-25T18:57:07.571Z,13.83
2018-08-25T18:59:34.813Z,13.80
2018-08-25T19:02:02.842Z,13.86
2018-08-25T19:04:29.988Z,13.83
2018-08-25T19:06:57.301Z,13.71
2018-08-25T19:09:24.624Z,13.68
2018-08-25T19:11:51.914Z,13.68
2018-08-25T19:14:19.153Z,13.62
2018-08-25T19:16:46.451Z,13.56
2018-08-25T19:19:13.811Z,13.53
2018-08-25T19:21:41.023Z,13.43
2018-08-25T19:24:08.346Z,13.47
2018-08-25T19:26:35.590Z,13.39
2018-08-25T19:29:02.901Z,13.37
2018-08-25T19:31:30.303Z,13.30
2018-08-25T19:33:57.566Z,13.26
2018-08-25T19:36:24.837Z,13.30
2018-08-25T19:38:52.181Z,13.24
2018-08-25T19:41:19.597Z,13.22
2018-08-25T19:43:46.831Z,13.12
2018-08-25T19:46:14.188Z,13.01
2018-08-25T19:48:41.643Z,12.98
2018-08-25T19:51:08.951Z,12.99
2018-08-25T19:53:36.213Z,12.91
2018-08-25T19:56:03.452Z,12.80
2018-08-25T19:58:30.804Z,12.80
2018-08-25T20:00:58.255Z,12.68
2018-08-25T20:03:25.687Z,12.63
2018-08-25T20:05:53.017Z,12.62
2018-08-25T20:08:20.356Z,12.67
2018-08-25T20:10:47.710Z,12.62
2018-08-25T20:13:15.002Z,12.54
2018-08-25T20:15:42.387Z,12.55
2018-08-25T20:18:09.675Z,12.62
2018-08-25T20:20:36.974Z,12.53
2018-08-25T20:23:04.336Z,12.58
2018-08-25T20:25:31.608Z,12.52
2018-08-25T20:27:58.933Z,12.55
2018-08-25T20:30:26.309Z,12.59
2018-08-25T20:32:53.567Z,12.56
2018-08-25T20:35:20.767Z,12.56
2018-08-25T20:37:48.090Z,12.47
2018-08-25T20:40:15.493Z,12.38
2018-08-25T20:42:42.988Z,12.32
2018-08-25T20:45:10.463Z,12.27
2018-08-25T20:47:37.844Z,12.12
2018-08-25T20:50:05.414Z,12.12
2018-08-25T20:52:32.730Z,12.14
2018-08-25T20:55:00.040Z,12.22
2018-08-25T20:57:27.335Z,12.17
2018-08-25T20:59:54.644Z,12.15
2018-08-25T21:02:21.986Z,12.04
2018-08-25T21:04:49.302Z,12.12
2018-08-25T21:07:16.681Z,12.05
2018-08-25T21:09:44.122Z,11.96
2018-08-25T21:12:11.585Z,11.90
2018-08-25T21:14:38.870Z,11.84
2018-08-25T21:17:06.213Z,11.86
2018-08-25T21:19:33.543Z,11.88
2018-08-25T21:22:00.812Z,11.86
2018-08-25T21:24:28.077Z,11.95
2018-08-25T21:26:55.452Z,11.94
2018-08-25T21:29:22.709Z,11.85
2018-08-25T21:31:50.043Z,11.82
2018-08-25T21:34:17.318Z,11.70
2018-08-25T21:36:44.630Z,11.66
2018-08-25T21:39:12.565Z,11.67
2018-08-25T21:41:39.998Z,11.62
2018-08-25T21:44:07.549Z,11.66
2018-08-25T21:46:34.996Z,11.77
2018-08-25T21:49:02.263Z,11.72
2018-08-25T21:51:29.509Z,11.60
2018-08-25T21:53:56.860Z,11.58
2018-08-25T21:56:24.142Z,11.62
2018-08-25T21:58:51.519Z,11.61
2018-08-25T22:01:18.899Z,11.65
2018-08-25T22:03:46.142Z,11.69
2018-08-25T22:06:13.473Z,11.72
2018-08-25T22:08:40.788Z,11.66
2018-08-25T22:11:08.162Z,11.58
2018-08-25T22:13:35.419Z,11.50
2018-08-25T22:16:02.651Z,11.44
2018-08-25T22:18:30.043Z,11.49
2018-08-25T22:20:57.335Z,11.49
2018-08-25T22:23:24.600Z,11.38
2018-08-25T22:25:51.883Z,11.33
2018-08-25T22:28:19.153Z,11.26
2018-08-25T22:30:46.442Z,11.13
2018-08-25T22:33:13.670Z,11.06
2018-08-25T22:35:40.922Z,11.06
2018-08-25T22:38:08.205Z,11.13
2018-08-25T22:40:35.447Z,11.09
2018-08-25T22:43:02.662Z,11.02
2018-08-25T22:45:29.885Z,11.02
2018-08-25T22:47:57.167Z,10.99
2018-08-25T22:50:24.478Z,10.96
2018-08-25T22:52:52.440Z,11.01
2018-08-25T22:55:21.136Z,11.01
2018-08-25T22:57:48.441Z,11.01
2018-08-25T23:00:15.683Z,10.94
2018-08-25T23:02:42.908Z,10.89
2018-08-25T23:05:10.170Z,10.81
2018-08-25T23:07:37.794Z,10.82
2018-08-25T23:10:05.452Z,10.89
2018-08-25T23:12:33.284Z,10.95
2018-08-25T23:15:00.810Z,10.96
2018-08-25T23:17:28.215Z,10.98
2018-08-25T23:19:55.452Z,10.98
2018-08-25T23:22:23.005Z,10.99
2018-08-25T23:24:50.263Z,11.01
2018-08-25T23:27:17.478Z,10.97
2018-08-25T23:29:44.684Z,11.01
2018-08-25T23:32:11.895Z,11.03
2018-08-25T23:34:39.178Z,10.97
2018-08-25T23:37:06.478Z,10.92
2018-08-25T23:39:33.679Z,10.89
2018-08-25T23:42:00.967Z,10.89
2018-08-25T23:44:28.250Z,10.92
2018-08-25T23:46:55.479Z,10.92
2018-08-25T23:49:22.839Z,10.84
2018-08-25T23:51:50.449Z,10.93
2018-08-25T23:54:17.900Z,10.96
2018-08-25T23:56:45.244Z,10.97
2018-08-25T23:59:12.485Z,10.93
